TimeCST,TemperatureF,Dew PointF,Humidity,Sea Level PressureIn,VisibilityMPH,Wind Direction,Wind SpeedMPH,Gust SpeedMPH,PrecipitationIn,Events,Conditions,WindDirDegrees,DateUTC
12:13 AM,12.2,1.6,63,30.08,10.0,South,10.4,17.3,N/A,,Overcast,180,2013-01-25 06:13:00
12:33 AM,12.4,2.3,64,30.06,10.0,South,10.4,16.1,N/A,,Overcast,180,2013-01-25 06:33:00
12:53 AM,12.6,3.6,67,30.05,10.0,South,9.2,16.1,N/A,,Overcast,180,2013-01-25 06:53:00
1:13 AM,12.7,4.1,68,30.04,10.0,South,12.7,17.3,N/A,,Overcast,190,2013-01-25 07:13:00
1:33 AM,12.6,4.8,71,30.02,10.0,South,13.8,19.6,N/A,,Overcast,170,2013-01-25 07:33:00
1:53 AM,12.7,5.4,72,30.02,10.0,South,11.5,19.6,N/A,,Overcast,190,2013-01-25 07:53:00
2:13 AM,12.7,5.9,74,30.01,10.0,South,10.4,17.3,N/A,,Overcast,180,2013-01-25 08:13:00
2:34 AM,12.6,5.9,75,30.01,10.0,South,10.4,-,N/A,,Overcast,190,2013-01-25 08:34:00
2:53 AM,12.7,5.9,74,30.00,10.0,South,9.2,19.6,N/A,,Overcast,190,2013-01-25 08:53:00
3:13 AM,12.9,6.1,74,29.98,10.0,SSW,9.2,-,N/A,,Overcast,200,2013-01-25 09:13:00
3:33 AM,13.1,6.3,74,29.96,10.0,South,13.8,-,N/A,,Overcast,190,2013-01-25 09:33:00
3:53 AM,13.1,6.3,74,29.96,10.0,SSW,10.4,-,N/A,,Overcast,210,2013-01-25 09:53:00
4:13 AM,13.5,6.4,74,29.94,10.0,SSW,11.5,-,N/A,,Overcast,210,2013-01-25 10:13:00
4:34 AM,14.0,6.6,72,29.94,10.0,SW,13.8,19.6,N/A,,Overcast,220,2013-01-25 10:34:00
4:53 AM,14.4,6.8,72,29.93,10.0,SW,11.5,-,N/A,,Overcast,230,2013-01-25 10:53:00
5:13 AM,14.5,7.5,74,29.93,10.0,WSW,12.7,23.0,N/A,,Overcast,240,2013-01-25 11:13:00
5:33 AM,14.5,7.7,74,29.92,10.0,WSW,12.7,17.3,N/A,,Overcast,240,2013-01-25 11:33:00
5:53 AM,14.0,7.7,76,29.91,10.0,WSW,9.2,-,N/A,,Overcast,240,2013-01-25 11:53:00
6:13 AM,13.3,7.5,78,29.91,10.0,WSW,11.5,-,N/A,,Scattered Clouds,240,2013-01-25 12:13:00
6:33 AM,13.5,8.2,80,29.91,10.0,WSW,11.5,-,N/A,,Mostly Cloudy,240,2013-01-25 12:33:00
6:53 AM,15.3,9.1,77,29.91,10.0,West,17.3,27.6,N/A,Snow,Light Snow,280,2013-01-25 12:53:00
7:33 AM,14.5,7.3,73,29.93,10.0,West,18.4,28.8,N/A,,Clear,280,2013-01-25 13:33:00
7:53 AM,12.9,4.5,69,29.94,10.0,West,25.3,32.2,N/A,,Clear,280,2013-01-25 13:53:00
8:13 AM,11.3,2.3,67,29.95,10.0,WNW,19.6,29.9,N/A,,Clear,290,2013-01-25 14:13:00
8:33 AM,10.2,2.3,70,29.96,10.0,WNW,16.1,23.0,N/A,,Mostly Cloudy,300,2013-01-25 14:33:00
8:53 AM,8.8,0.3,69,29.99,10.0,WNW,19.6,28.8,N/A,,Scattered Clouds,300,2013-01-25 14:53:00
9:13 AM,7.9,1.0,74,29.99,5.0,WNW,17.3,25.3,N/A,,Haze,290,2013-01-25 15:13:00
9:33 AM,6.8,-1.3,69,30.01,10.0,WNW,21.9,26.5,N/A,,Scattered Clouds,290,2013-01-25 15:33:00
9:53 AM,6.8,-1.8,68,30.02,10.0,WNW,16.1,28.8,N/A,,Clear,300,2013-01-25 15:53:00
10:14 AM,6.3,-1.7,70,30.03,10.0,WNW,20.7,26.5,N/A,,Clear,300,2013-01-25 16:14:00
10:33 AM,6.3,-2.2,68,30.03,10.0,WNW,16.1,28.8,N/A,,Clear,300,2013-01-25 16:33:00
10:53 AM,6.1,-2.2,69,30.04,10.0,WNW,17.3,27.6,N/A,,Clear,290,2013-01-25 16:53:00
11:14 AM,6.6,-2.2,67,30.05,10.0,WNW,16.1,26.5,N/A,,Clear,290,2013-01-25 17:14:00
11:33 AM,6.8,-2.2,67,30.06,10.0,WNW,18.4,24.2,N/A,,Clear,300,2013-01-25 17:33:00
11:53 AM,6.8,-2.6,66,30.06,10.0,WNW,18.4,26.5,N/A,,Clear,300,2013-01-25 17:53:00
12:14 PM,6.6,-2.2,67,30.07,10.0,WNW,19.6,23.0,N/A,,Clear,300,2013-01-25 18:14:00
12:33 PM,6.8,-2.2,67,30.07,10.0,WNW,17.3,24.2,N/A,,Clear,300,2013-01-25 18:33:00
12:53 PM,6.6,-1.5,69,30.07,10.0,WNW,17.3,23.0,N/A,,Clear,290,2013-01-25 18:53:00
1:13 PM,6.6,-1.7,69,30.08,10.0,WNW,16.1,24.2,N/A,,Clear,300,2013-01-25 19:13:00
1:33 PM,6.8,-1.8,68,30.09,10.0,WNW,15.0,20.7,N/A,,Clear,300,2013-01-25 19:33:00
1:53 PM,6.6,-2.4,67,30.11,10.0,WNW,11.5,23.0,N/A,,Clear,300,2013-01-25 19:53:00
2:13 PM,6.6,-2.2,67,30.11,10.0,WNW,16.1,23.0,N/A,,Clear,290,2013-01-25 20:13:00
2:33 PM,6.4,-2.6,67,30.12,10.0,WNW,16.1,23.0,N/A,,Clear,290,2013-01-25 20:33:00
2:53 PM,6.3,-2.6,67,30.13,10.0,WNW,13.8,23.0,N/A,,Clear,300,2013-01-25 20:53:00
3:13 PM,5.9,-2.9,67,30.14,10.0,WNW,13.8,23.0,N/A,,Clear,290,2013-01-25 21:13:00
3:33 PM,5.5,-3.3,67,30.14,10.0,WNW,12.7,20.7,N/A,,Clear,300,2013-01-25 21:33:00
3:53 PM,5.5,-3.1,68,30.15,10.0,WNW,12.7,17.3,N/A,,Clear,290,2013-01-25 21:53:00
4:13 PM,5.0,-3.3,69,30.15,10.0,WNW,10.4,18.4,N/A,,Clear,300,2013-01-25 22:13:00
4:33 PM,4.8,-3.6,68,30.16,10.0,WNW,12.7,19.6,N/A,,Clear,300,2013-01-25 22:33:00
4:53 PM,4.3,-4.0,69,30.17,10.0,WNW,10.4,18.4,N/A,,Clear,300,2013-01-25 22:53:00
5:13 PM,3.7,-4.0,70,30.17,10.0,WNW,6.9,-,N/A,,Clear,300,2013-01-25 23:13:00
5:33 PM,3.0,-4.4,71,30.17,10.0,WNW,9.2,-,N/A,,Clear,300,2013-01-25 23:33:00
5:53 PM,2.7,-4.7,71,30.18,10.0,WNW,6.9,-,N/A,,Clear,290,2013-01-25 23:53:00
6:14 PM,2.1,-4.9,72,30.20,10.0,West,6.9,-,N/A,,Clear,280,2013-01-26 00:14:00
6:33 PM,1.6,-5.4,72,30.20,10.0,WNW,5.8,-,N/A,,Clear,290,2013-01-26 00:33:00
6:53 PM,1.2,-5.8,72,30.21,10.0,West,8.1,-,N/A,,Clear,280,2013-01-26 00:53:00
7:13 PM,0.7,-6.0,74,30.21,10.0,WNW,5.8,-,N/A,,Clear,290,2013-01-26 01:13:00
7:33 PM,-0.4,-6.7,75,30.23,10.0,West,6.9,-,N/A,,Clear,280,2013-01-26 01:33:00
7:53 PM,-0.4,-6.7,75,30.25,10.0,West,6.9,-,N/A,,Clear,280,2013-01-26 01:53:00
8:13 PM,-0.8,-7.1,75,30.26,10.0,West,5.8,-,N/A,,Clear,270,2013-01-26 02:13:00
8:33 PM,-1.5,-7.6,75,30.26,10.0,West,5.8,-,N/A,,Clear,280,2013-01-26 02:33:00
8:53 PM,-1.8,-7.8,76,30.26,10.0,West,5.8,-,N/A,,Clear,260,2013-01-26 02:53:00
9:13 PM,-2.4,-8.0,77,30.25,10.0,West,4.6,-,N/A,,Clear,280,2013-01-26 03:13:00
9:33 PM,-2.6,-8.5,76,30.25,10.0,West,4.6,-,N/A,,Clear,280,2013-01-26 03:33:00
9:53 PM,-3.1,-8.5,78,30.26,10.0,WNW,3.5,-,N/A,,Clear,290,2013-01-26 03:53:00
10:13 PM,-3.3,-8.7,78,30.26,10.0,Calm,Calm,-,N/A,,Clear,0,2013-01-26 04:13:00
10:53 PM,-4.2,-9.4,78,30.28,10.0,Calm,Calm,-,N/A,,Clear,0,2013-01-26 04:53:00
11:13 PM,-5.8,-10.8,79,30.28,10.0,Calm,Calm,-,N/A,,Clear,0,2013-01-26 05:13:00
11:33 PM,-5.3,-10.1,80,30.28,10.0,Calm,Calm,-,N/A,,Clear,0,2013-01-26 05:33:00
11:53 PM,-3.1,-8.9,76,30.29,10.0,Calm,Calm,-,N/A,,Clear,0,2013-01-26 05:53:00